Terminal Aerodrome Forecast
Issued by NWS

Home | Current Version | Previous Version | Text Only | Print | Product List | Glossary On
Versions: 1 2 3 4 5 6 7 8 9 10 11 12 13 14 15
000
FTUS46 KPDT 200808 AAB
TAFRDM
TAF AMD
KRDM 200808Z 2008/2106 18014KT P6SM BKN150
     FM201400 20011KT 6SM -RA BR OVC035
     FM201800 25011KT P6SM -RA SCT030 BKN050
     FM202300 22010KT P6SM BKN050 BKN100
      TEMPO 2023/2103 -RA BKN050 BKN070=

USA.gov is the U.S. government's official web portal to all federal, state and local government web resources and services.